createdAt,value
2019-01-02T00:01:48.829Z,8.00
2019-01-02T00:04:36.337Z,7.80
2019-01-02T00:07:07.483Z,8.10
2019-01-02T00:09:35.154Z,7.90
2019-01-02T00:12:26.432Z,7.90
2019-01-02T00:14:56.586Z,8.10
2019-01-02T00:17:29.301Z,8.20
2019-01-02T00:20:16.326Z,8.20
2019-01-02T00:22:44.555Z,8.00
2019-01-02T00:25:16.618Z,8.30
2019-01-02T00:27:59.140Z,7.90
2019-01-02T00:30:27.097Z,8.30
2019-01-02T00:32:55.287Z,8.50
2019-01-02T00:35:22.843Z,8.40
2019-01-02T00:37:51.434Z,8.90
2019-01-02T00:40:19.461Z,9.00
2019-01-02T00:42:59.799Z,8.80
2019-01-02T00:45:29.709Z,8.40
2019-01-02T00:47:57.984Z,8.40
2019-01-02T00:50:25.998Z,8.50
2019-01-02T00:52:58.843Z,8.50
2019-01-02T00:55:27.294Z,8.70
2019-01-02T00:58:18.223Z,8.50
2019-01-02T01:00:47.418Z,8.70
2019-01-02T01:03:16.681Z,8.60
2019-01-02T01:05:45.390Z,8.80
2019-01-02T01:08:16.912Z,9.00
2019-01-02T01:10:49.703Z,8.90
2019-01-02T01:13:18.833Z,8.60
2019-01-02T01:15:49.072Z,8.60
2019-01-02T01:18:29.787Z,9.00
2019-01-02T01:20:59.086Z,9.00
2019-01-02T01:23:26.677Z,8.90
2019-01-02T01:25:59.243Z,8.60
2019-01-02T01:28:32.267Z,8.30
2019-01-02T01:33:50.181Z,8.50
2019-01-02T01:36:18.272Z,8.70
2019-01-02T01:38:47.086Z,8.80
2019-01-02T01:41:14.835Z,8.80
2019-01-02T01:43:42.454Z,8.80
2019-01-02T01:46:10.279Z,8.60
2019-01-02T01:48:40.429Z,8.80
2019-01-02T01:51:10.264Z,8.10
2019-01-02T01:53:38.728Z,8.40
2019-01-02T01:56:07.447Z,8.50
2019-01-02T01:58:36.200Z,8.10
2019-01-02T02:01:05.372Z,7.90
2019-01-02T02:03:36.223Z,7.80
2019-01-02T02:06:04.130Z,8.00
2019-01-02T02:08:35.511Z,8.10
2019-01-02T02:11:06.271Z,8.50
2019-01-02T02:13:35.025Z,8.60
2019-01-02T02:16:07.399Z,8.50
2019-01-02T02:18:35.172Z,8.40
2019-01-02T02:21:04.199Z,8.30
2019-01-02T02:23:32.147Z,8.20
2019-01-02T02:25:59.797Z,8.10
2019-01-02T02:28:27.839Z,7.70
2019-01-02T02:30:56.031Z,7.90
2019-01-02T02:33:24.148Z,7.90
2019-01-02T02:35:53.276Z,8.30
2019-01-02T02:38:26.776Z,7.90
2019-01-02T02:40:55.154Z,8.20
2019-01-02T02:43:27.750Z,8.00
2019-01-02T02:45:57.816Z,8.00
2019-01-02T02:48:25.812Z,7.80
2019-01-02T02:50:54.421Z,8.00
2019-01-02T02:53:23.575Z,8.30
2019-01-02T02:55:53.115Z,8.20
2019-01-02T02:58:21.279Z,8.10
2019-01-02T03:00:49.736Z,8.20
2019-01-02T03:03:21.100Z,8.30
2019-01-02T03:05:54.398Z,8.00
2019-01-02T03:08:23.207Z,7.80
2019-01-02T03:10:54.031Z,7.70
2019-01-02T03:13:22.006Z,7.40
2019-01-02T03:15:58.506Z,7.40
2019-01-02T03:18:27.178Z,7.50
2019-01-02T03:20:56.873Z,7.60
2019-01-02T03:23:28.499Z,7.80
2019-01-02T03:25:59.234Z,7.60
2019-01-02T03:28:27.744Z,7.60
2019-01-02T03:30:57.028Z,7.40
2019-01-02T03:33:24.882Z,7.40
2019-01-02T03:35:52.263Z,7.70
2019-01-02T03:38:20.259Z,7.80
2019-01-02T03:40:53.920Z,7.70
2019-01-02T03:43:22.208Z,7.70
2019-01-02T03:45:49.838Z,7.70
2019-01-02T03:48:18.958Z,7.30
2019-01-02T03:50:46.514Z,7.80
2019-01-02T03:53:14.211Z,7.70
2019-01-02T03:55:42.091Z,7.50
2019-01-02T03:58:11.595Z,7.80
2019-01-02T04:00:39.932Z,7.80
2019-01-02T04:03:07.378Z,7.80
2019-01-02T04:05:37.738Z,8.00
2019-01-02T04:08:08.262Z,7.80
2019-01-02T04:10:35.918Z,7.90
2019-01-02T04:13:06.455Z,7.30
2019-01-02T04:15:34.008Z,7.70
2019-01-02T04:18:04.182Z,7.60
2019-01-02T04:20:32.402Z,7.80
2019-01-02T04:23:00.186Z,8.00
2019-01-02T04:25:33.745Z,7.80
2019-01-02T04:28:10.015Z,7.20
2019-01-02T04:30:35.152Z,7.40
2019-01-02T04:33:03.207Z,7.10
2019-01-02T04:35:31.167Z,7.40
2019-01-02T04:37:59.866Z,7.50
2019-01-02T04:40:38.690Z,8.10
2019-01-02T04:43:06.280Z,7.70
2019-01-02T04:45:34.023Z,8.00
2019-01-02T04:48:02.701Z,7.80
2019-01-02T04:50:31.079Z,7.30
2019-01-02T04:52:59.548Z,7.40
2019-01-02T04:55:30.285Z,7.20
2019-01-02T04:57:58.744Z,7.30
2019-01-02T05:00:27.248Z,7.00
2019-01-02T05:02:55.134Z,7.00
2019-01-02T05:08:18.998Z,7.70
2019-01-02T05:10:47.083Z,7.60
2019-01-02T05:13:14.768Z,7.30
2019-01-02T05:15:42.599Z,7.50
2019-01-02T05:18:10.480Z,7.80
2019-01-02T05:20:40.912Z,7.80
2019-01-02T05:23:23.055Z,7.40
2019-01-02T05:26:06.983Z,7.10
2019-01-02T05:28:35.540Z,7.30
2019-01-02T05:31:03.754Z,7.30
2019-01-02T05:33:32.252Z,7.50
2019-01-02T05:36:00.549Z,7.70
2019-01-02T05:38:28.125Z,7.70
2019-01-02T05:40:57.339Z,7.80
2019-01-02T05:43:25.066Z,7.70
2019-01-02T05:45:58.161Z,7.70
2019-01-02T05:48:26.412Z,7.60
2019-01-02T05:50:55.429Z,7.30
2019-01-02T05:53:23.269Z,7.10
2019-01-02T05:55:50.992Z,7.30
2019-01-02T05:58:19.270Z,7.40
2019-01-02T06:00:48.634Z,7.40
2019-01-02T06:03:18.526Z,7.40
2019-01-02T06:05:46.280Z,7.30
2019-01-02T06:08:15.195Z,7.80
2019-01-02T06:10:42.791Z,7.70
2019-01-02T06:13:10.645Z,7.10
2019-01-02T06:15:39.140Z,7.30
2019-01-02T06:18:07.266Z,7.50
2019-01-02T06:20:35.694Z,7.00
2019-01-02T06:23:03.748Z,7.40
2019-01-02T06:25:33.571Z,7.40
2019-01-02T06:28:02.006Z,7.40
2019-01-02T06:30:29.984Z,7.10
2019-01-02T06:32:58.669Z,7.30
2019-01-02T06:35:26.946Z,7.40
2019-01-02T06:37:56.578Z,7.50
2019-01-02T06:40:27.016Z,7.90
2019-01-02T06:42:59.349Z,8.00
2019-01-02T06:45:27.994Z,8.20
2019-01-02T06:47:55.592Z,7.80
2019-01-02T06:50:25.377Z,8.00
2019-01-02T06:52:52.954Z,8.30
2019-01-02T06:55:20.693Z,8.00
2019-01-02T06:57:48.506Z,8.00
2019-01-02T07:00:28.990Z,8.50
2019-01-02T07:02:56.533Z,8.60
2019-01-02T07:05:25.324Z,8.40
2019-01-02T07:07:53.201Z,8.20
2019-01-02T07:10:21.042Z,8.30
2019-01-02T07:12:48.526Z,7.90
2019-01-02T07:15:16.551Z,7.90
2019-01-02T07:17:44.146Z,8.10
2019-01-02T07:20:11.867Z,7.90
2019-01-02T07:22:39.469Z,8.00
2019-01-02T07:25:15.283Z,8.20
2019-01-02T07:27:45.519Z,8.20
2019-01-02T07:30:16.417Z,8.40
2019-01-02T07:32:44.413Z,8.40
2019-01-02T07:36:05.802Z,8.40
2019-01-02T07:39:19.663Z,8.70
2019-01-02T07:42:26.087Z,8.40
2019-01-02T07:45:21.742Z,8.60
2019-01-02T07:48:45.484Z,8.70
2019-01-02T07:51:45.133Z,8.90
2019-01-02T07:54:40.564Z,9.20
2019-01-02T07:57:51.754Z,9.10
2019-01-02T08:01:07.408Z,8.80
2019-01-02T08:04:03.036Z,9.00
2019-01-02T08:07:13.899Z,9.00
2019-01-02T08:10:35.237Z,8.70
2019-01-02T08:13:43.127Z,8.80
2019-01-02T08:16:47.404Z,8.70
2019-01-02T08:20:07.842Z,9.00
2019-01-02T08:23:38.210Z,9.00
2019-01-02T08:26:53.425Z,9.30
2019-01-02T08:29:59.950Z,9.20
2019-01-02T08:33:03.212Z,8.90
2019-01-02T08:36:05.274Z,9.10
2019-01-02T08:39:27.292Z,8.80
2019-01-02T08:42:39.598Z,9.10
2019-01-02T08:45:46.721Z,9.20
2019-01-02T08:48:50.999Z,9.20
2019-01-02T08:51:40.418Z,9.30
2019-01-02T08:54:35.073Z,8.90
2019-01-02T08:57:48.194Z,8.90
2019-01-02T09:00:44.233Z,9.00
2019-01-02T09:03:41.878Z,9.00
2019-01-02T09:06:51.433Z,8.80
2019-01-02T09:10:12.760Z,8.90
2019-01-02T09:13:36.458Z,8.80
2019-01-02T09:16:35.788Z,8.70
2019-01-02T09:19:53.600Z,8.80
2019-01-02T09:22:59.122Z,9.00
2019-01-02T09:25:59.933Z,9.20
2019-01-02T09:29:03.549Z,9.30
2019-01-02T09:32:04.109Z,9.30
2019-01-02T09:35:27.351Z,9.70
2019-01-02T09:38:24.335Z,9.50
2019-01-02T09:41:40.662Z,9.70
2019-01-02T09:44:49.366Z,9.90
2019-01-02T09:48:03.749Z,10.00
2019-01-02T09:51:07.451Z,10.10
2019-01-02T09:54:14.276Z,10.30
2019-01-02T09:57:30.810Z,9.50
2019-01-02T10:00:36.646Z,9.40
2019-01-02T10:03:43.157Z,9.10
2019-01-02T10:06:40.331Z,9.00
2019-01-02T10:09:41.902Z,9.00
2019-01-02T10:12:51.592Z,8.90
2019-01-02T10:15:55.878Z,9.00
2019-01-02T10:19:00.999Z,9.80
2019-01-02T10:22:01.727Z,9.40
2019-01-02T10:25:06.980Z,9.50
2019-01-02T10:27:59.758Z,9.80
2019-01-02T10:31:23.006Z,9.00
2019-01-02T10:34:20.865Z,8.80
2019-01-02T10:37:39.995Z,9.00
2019-01-02T10:40:43.031Z,9.30
2019-01-02T10:43:43.332Z,9.80
2019-01-02T10:46:45.750Z,9.50
2019-01-02T10:49:37.588Z,9.20
2019-01-02T10:52:41.220Z,9.30
2019-01-02T10:56:12.275Z,9.30
2019-01-02T10:59:19.463Z,9.40
2019-01-02T11:02:31.407Z,8.60
2019-01-02T11:05:42.800Z,8.20
2019-01-02T11:09:01.172Z,8.70
2019-01-02T11:12:25.351Z,8.70
2019-01-02T11:15:33.914Z,9.20
2019-01-02T11:18:46.114Z,9.40
2019-01-02T11:21:51.724Z,9.70
2019-01-02T11:25:19.427Z,9.80
2019-01-02T11:28:47.257Z,9.40
2019-01-02T11:31:58.221Z,9.40
2019-01-02T11:35:00.973Z,9.30
2019-01-02T11:38:21.574Z,8.90
2019-01-02T11:44:50.288Z,9.20
2019-01-02T11:47:21.426Z,9.70
2019-01-02T11:52:40.402Z,10.00
2019-01-02T11:55:27.540Z,10.00
2019-01-02T11:58:03.294Z,9.50
2019-01-02T12:00:34.838Z,9.50
2019-01-02T12:03:02.610Z,9.60
2019-01-02T12:05:32.002Z,9.80
2019-01-02T12:08:10.012Z,10.00
2019-01-02T12:10:39.916Z,10.20
2019-01-02T12:13:08.104Z,10.10
2019-01-02T12:15:36.533Z,10.40
2019-01-02T12:18:04.123Z,10.60
2019-01-02T12:20:43.907Z,10.80
2019-01-02T12:23:13.591Z,9.90
2019-01-02T12:25:42.380Z,9.50
2019-01-02T12:28:10.842Z,9.30
2019-01-02T12:30:38.423Z,9.40
2019-01-02T12:33:07.420Z,9.50
2019-01-02T12:35:35.296Z,9.10
2019-01-02T12:38:03.312Z,9.20
2019-01-02T12:40:33.224Z,9.20
2019-01-02T12:43:01.013Z,9.80
2019-01-02T12:45:28.725Z,9.90
2019-01-02T12:48:15.978Z,9.40
2019-01-02T12:50:45.107Z,9.50
2019-01-02T12:53:16.158Z,9.40
2019-01-02T12:55:47.716Z,9.70
2019-01-02T12:58:29.154Z,10.10
2019-01-02T13:01:04.558Z,10.40
2019-01-02T13:04:01.968Z,10.20
2019-01-02T13:07:10.266Z,9.90
2019-01-02T13:13:00.722Z,10.00
2019-01-02T13:16:28.463Z,10.30
2019-01-02T13:19:29.533Z,10.00
2019-01-02T13:22:46.193Z,9.80
2019-01-02T13:25:40.030Z,9.30
2019-01-02T13:28:50.323Z,9.40
2019-01-02T13:31:57.667Z,9.40
2019-01-02T13:35:00.708Z,9.80
2019-01-02T13:37:56.315Z,9.40
2019-01-02T13:41:06.373Z,9.20
2019-01-02T13:44:01.451Z,9.10
2019-01-02T13:47:33.319Z,9.40
2019-01-02T13:50:39.481Z,9.50
2019-01-02T13:53:11.045Z,9.60
2019-01-02T13:55:41.573Z,9.70
2019-01-02T13:58:12.132Z,9.90
2019-01-02T14:00:39.617Z,9.30
2019-01-02T14:03:07.707Z,9.40
2019-01-02T14:05:40.143Z,9.20
2019-01-02T14:08:09.511Z,9.10
2019-01-02T14:10:44.370Z,9.10
2019-01-02T14:13:12.172Z,9.00
2019-01-02T14:15:40.662Z,9.30
2019-01-02T14:18:09.336Z,9.50
2019-01-02T14:20:37.190Z,9.50
2019-01-02T14:23:04.682Z,9.60
2019-01-02T14:25:32.215Z,9.30
2019-01-02T14:28:08.386Z,8.90
2019-01-02T14:30:36.248Z,9.50
2019-01-02T14:33:03.751Z,9.40
2019-01-02T14:35:31.501Z,9.10
2019-01-02T14:38:05.158Z,8.90
2019-01-02T14:40:32.781Z,9.10
2019-01-02T14:43:00.726Z,9.40
2019-01-02T14:45:32.853Z,9.30
2019-01-02T14:48:01.336Z,9.00
2019-01-02T14:50:36.226Z,8.90
2019-01-02T14:53:24.617Z,9.10
2019-01-02T14:55:52.827Z,9.00
2019-01-02T14:58:21.291Z,9.10
2019-01-02T15:00:49.137Z,9.10
2019-01-02T15:03:24.838Z,8.80
2019-01-02T15:05:53.501Z,8.90
2019-01-02T15:08:26.699Z,8.50
2019-01-02T15:10:54.380Z,8.60
2019-01-02T15:13:22.263Z,8.70
2019-01-02T15:15:50.930Z,8.80
2019-01-02T15:18:18.927Z,8.90
2019-01-02T15:20:46.836Z,8.80
2019-01-02T15:23:16.331Z,8.60
2019-01-02T15:25:44.655Z,8.60
2019-01-02T15:31:00.964Z,8.30
2019-01-02T15:33:28.586Z,8.70
2019-01-02T15:35:58.546Z,8.80
2019-01-02T15:38:29.236Z,8.70
2019-01-02T15:40:57.736Z,8.40
2019-01-02T15:43:25.455Z,8.50
2019-01-02T15:45:53.198Z,8.50
2019-01-02T15:48:21.570Z,8.50
2019-01-02T15:50:56.324Z,8.60
2019-01-02T15:53:24.630Z,8.50
2019-01-02T15:55:52.428Z,8.60
2019-01-02T15:58:20.005Z,8.60
2019-01-02T16:00:48.195Z,8.80
2019-01-02T16:03:16.356Z,8.60
2019-01-02T16:05:43.817Z,8.70
2019-01-02T16:08:11.933Z,8.90
2019-01-02T16:10:39.797Z,8.80
2019-01-02T16:13:11.390Z,8.70
2019-01-02T16:15:39.361Z,8.30
2019-01-02T16:18:08.191Z,8.60
2019-01-02T16:20:35.850Z,8.60
2019-01-02T16:23:04.529Z,8.70
2019-01-02T16:25:32.682Z,8.30
2019-01-02T16:28:01.114Z,8.40
2019-01-02T16:30:29.044Z,8.40
2019-01-02T16:32:56.659Z,8.40
2019-01-02T16:35:24.161Z,8.50
2019-01-02T16:38:02.234Z,8.60
2019-01-02T16:40:30.231Z,8.60
2019-01-02T16:43:00.352Z,8.70
2019-01-02T16:45:28.419Z,8.70
2019-01-02T16:47:56.186Z,8.50
2019-01-02T16:50:23.792Z,8.50
2019-01-02T16:52:51.281Z,8.60
2019-01-02T16:55:18.859Z,8.60
2019-01-02T16:57:46.701Z,8.60
2019-01-02T17:00:14.455Z,8.50
2019-01-02T17:02:42.207Z,8.50
2019-01-02T17:05:11.036Z,8.60
2019-01-02T17:07:38.640Z,8.70
2019-01-02T17:10:07.799Z,8.50
2019-01-02T17:12:37.612Z,8.30
2019-01-02T17:15:05.799Z,8.00
2019-01-02T17:17:34.946Z,8.10
2019-01-02T17:20:03.288Z,8.00
2019-01-02T17:22:30.800Z,8.20
2019-01-02T17:24:59.924Z,8.30
2019-01-02T17:27:27.772Z,8.00
2019-01-02T17:29:55.880Z,8.00
2019-01-02T17:32:23.581Z,8.00
2019-01-02T17:34:57.934Z,8.10
2019-01-02T17:37:25.523Z,8.30
2019-01-02T17:39:53.158Z,8.20
2019-01-02T17:42:29.293Z,8.30
2019-01-02T17:44:57.799Z,8.20
2019-01-02T17:47:26.188Z,8.00
2019-01-02T17:49:53.942Z,7.60
2019-01-02T17:52:24.655Z,8.00
2019-01-02T17:55:12.780Z,8.00
2019-01-02T17:57:52.128Z,8.10
2019-01-02T18:00:24.824Z,7.80
2019-01-02T18:02:53.232Z,8.00
2019-01-02T18:05:20.783Z,8.10
2019-01-02T18:07:48.524Z,7.70
2019-01-02T18:10:16.633Z,7.90
2019-01-02T18:12:44.260Z,8.10
2019-01-02T18:15:12.134Z,8.00
2019-01-02T18:17:39.626Z,7.90
2019-01-02T18:20:09.227Z,7.70
2019-01-02T18:22:38.118Z,7.80
2019-01-02T18:25:05.643Z,8.00
2019-01-02T18:27:39.226Z,8.10
2019-01-02T18:30:10.477Z,7.90
2019-01-02T18:32:38.158Z,8.10
2019-01-02T18:35:05.817Z,8.10
2019-01-02T18:37:55.983Z,8.20
2019-01-02T18:40:24.110Z,8.20
2019-01-02T18:42:52.434Z,8.10
2019-01-02T18:45:20.509Z,8.10
2019-01-02T18:47:49.132Z,8.20
2019-01-02T18:50:17.924Z,8.10
2019-01-02T18:52:50.202Z,8.20
2019-01-02T18:55:19.694Z,8.10
2019-01-02T18:57:49.443Z,8.00
2019-01-02T19:00:19.373Z,7.90
2019-01-02T19:02:52.616Z,7.70
2019-01-02T19:05:44.110Z,7.80
2019-01-02T19:08:13.167Z,7.80
2019-01-02T19:10:40.904Z,7.70
2019-01-02T19:13:16.805Z,7.90
2019-01-02T19:18:21.013Z,8.00
2019-01-02T19:21:33.349Z,7.80
2019-01-02T19:24:01.473Z,7.80
2019-01-02T19:26:35.081Z,7.60
2019-01-02T19:29:03.516Z,7.50
2019-01-02T19:31:49.978Z,7.70
2019-01-02T19:34:37.674Z,8.00
2019-01-02T19:37:20.053Z,7.80
2019-01-02T19:39:47.803Z,7.90
2019-01-02T19:42:15.730Z,7.80
2019-01-02T19:44:44.257Z,8.10
2019-01-02T19:47:12.134Z,8.20
2019-01-02T19:49:40.319Z,8.20
2019-01-02T19:52:11.556Z,8.10
2019-01-02T19:54:40.488Z,8.00
2019-01-02T19:57:08.115Z,8.20
2019-01-02T19:59:37.499Z,8.20
2019-01-02T20:02:07.033Z,8.30
2019-01-02T20:04:34.813Z,8.10
2019-01-02T20:07:02.424Z,8.00
2019-01-02T20:09:37.182Z,8.20
2019-01-02T20:12:05.952Z,8.00
2019-01-02T20:14:36.677Z,7.50
2019-01-02T20:17:04.588Z,7.80
2019-01-02T20:19:32.292Z,7.80
2019-01-02T20:22:02.727Z,8.00
2019-01-02T20:24:30.407Z,8.00
2019-01-02T20:26:58.870Z,7.50
2019-01-02T20:29:27.060Z,7.10
2019-01-02T20:31:55.014Z,7.60
2019-01-02T20:34:28.274Z,7.70
2019-01-02T20:42:15.447Z,7.80
2019-01-02T20:44:44.002Z,7.20
2019-01-02T20:47:11.795Z,7.60
2019-01-02T20:49:41.659Z,7.40
2019-01-02T20:57:37.380Z,7.60
2019-01-02T21:00:09.076Z,7.60
2019-01-02T21:02:45.575Z,7.70
2019-01-02T21:05:55.203Z,7.70
2019-01-02T21:08:24.286Z,7.80
2019-01-02T21:14:03.686Z,7.80
2019-01-02T21:23:02.601Z,7.50
2019-01-02T21:28:48.770Z,7.40
2019-01-02T21:37:09.163Z,7.50
2019-01-02T21:45:17.268Z,7.40
2019-01-02T21:50:37.026Z,7.60
2019-01-02T21:53:19.448Z,7.60
2019-01-02T21:56:00.190Z,7.50
2019-01-02T22:01:19.688Z,7.40
2019-01-02T22:03:53.992Z,7.40
2019-01-02T22:06:21.891Z,7.40
2019-01-02T22:11:30.087Z,7.10
2019-01-02T22:13:58.326Z,7.10
2019-01-02T22:16:27.600Z,7.00
2019-01-02T22:18:56.953Z,6.90
2019-01-02T22:21:25.073Z,6.90
2019-01-02T22:26:39.386Z,6.60
2019-01-02T22:29:07.289Z,6.70
2019-01-02T22:31:37.905Z,6.40
2019-01-02T22:34:10.939Z,6.40
2019-01-02T22:36:38.615Z,6.30
2019-01-02T22:39:27.897Z,6.40
2019-01-02T22:41:56.860Z,6.40
2019-01-02T22:44:43.119Z,6.40
2019-01-02T22:47:26.117Z,6.40
2019-01-02T22:49:55.691Z,6.40
2019-01-02T22:52:25.103Z,6.40
2019-01-02T22:54:54.004Z,6.50
2019-01-02T22:57:22.657Z,6.40
2019-01-02T22:59:50.308Z,6.30
2019-01-02T23:02:39.688Z,6.40
2019-01-02T23:05:33.595Z,6.30
2019-01-02T23:08:27.037Z,6.30
2019-01-02T23:11:15.998Z,6.30
2019-01-02T23:14:02.072Z,6.30
2019-01-02T23:16:47.505Z,6.40
2019-01-02T23:19:38.673Z,6.20
2019-01-02T23:22:24.768Z,6.20
2019-01-02T23:25:11.247Z,6.10
2019-01-02T23:27:59.246Z,6.10
2019-01-02T23:31:05.312Z,6.00
2019-01-02T23:34:07.792Z,6.10
2019-01-02T23:37:01.477Z,6.00
2019-01-02T23:39:52.384Z,5.90
2019-01-02T23:45:14.023Z,5.90
2019-01-02T23:48:08.256Z,5.70
2019-01-02T23:51:15.559Z,5.80
2019-01-02T23:54:07.542Z,5.80
2019-01-02T23:56:56.504Z,6.00
2019-01-02T23:59:46.597Z,5.80
